sensor_id;sensor_type;location;lat;lon;timestamp;P1;durP1;ratioP1;P2;durP2;ratioP2
78072;SDS011;67281;48.770;11.440;2023-03-03T00:01:04;36.90;;;24.37;;
78072;SDS011;67281;48.770;11.440;2023-03-03T00:03:35;35.47;;;24.40;;
78072;SDS011;67281;48.770;11.440;2023-03-03T00:06:03;32.73;;;23.30;;
78072;SDS011;67281;48.770;11.440;2023-03-03T00:08:31;33.40;;;24.17;;
78072;SDS011;67281;48.770;11.440;2023-03-03T00:10:58;32.87;;;23.37;;
78072;SDS011;67281;48.770;11.440;2023-03-03T00:13:26;35.67;;;24.67;;
78072;SDS011;67281;48.770;11.440;2023-03-03T00:15:54;37.33;;;24.00;;
78072;SDS011;67281;48.770;11.440;2023-03-03T00:18:37;36.37;;;23.47;;
78072;SDS011;67281;48.770;11.440;2023-03-03T00:21:44;38.63;;;23.90;;
78072;SDS011;67281;48.770;11.440;2023-03-03T00:26:56;37.63;;;24.33;;
78072;SDS011;67281;48.770;11.440;2023-03-03T00:29:35;36.63;;;24.60;;
78072;SDS011;67281;48.770;11.440;2023-03-03T00:35:23;36.87;;;23.53;;
78072;SDS011;67281;48.770;11.440;2023-03-03T00:38:13;33.97;;;23.33;;
78072;SDS011;67281;48.770;11.440;2023-03-03T00:40:44;34.53;;;23.90;;
78072;SDS011;67281;48.770;11.440;2023-03-03T00:43:33;38.00;;;25.10;;
78072;SDS011;67281;48.770;11.440;2023-03-03T00:46:07;37.67;;;24.90;;
78072;SDS011;67281;48.770;11.440;2023-03-03T00:53:48;37.87;;;25.13;;
78072;SDS011;67281;48.770;11.440;2023-03-03T00:56:16;36.20;;;25.70;;
78072;SDS011;67281;48.770;11.440;2023-03-03T00:58:44;36.20;;;25.07;;
78072;SDS011;67281;48.770;11.440;2023-03-03T01:01:14;37.70;;;25.23;;
78072;SDS011;67281;48.770;11.440;2023-03-03T01:03:42;39.37;;;26.07;;
78072;SDS011;67281;48.770;11.440;2023-03-03T01:06:10;36.53;;;24.43;;
78072;SDS011;67281;48.770;11.440;2023-03-03T01:08:38;38.60;;;24.53;;
78072;SDS011;67281;48.770;11.440;2023-03-03T01:11:10;34.00;;;24.70;;
78072;SDS011;67281;48.770;11.440;2023-03-03T01:13:42;38.47;;;24.60;;
78072;SDS011;67281;48.770;11.440;2023-03-03T01:16:11;38.87;;;25.47;;
78072;SDS011;67281;48.770;11.440;2023-03-03T01:18:39;37.60;;;25.40;;
78072;SDS011;67281;48.770;11.440;2023-03-03T01:21:08;37.40;;;25.37;;
78072;SDS011;67281;48.770;11.440;2023-03-03T01:23:35;37.23;;;25.00;;
78072;SDS011;67281;48.770;11.440;2023-03-03T01:26:03;36.50;;;25.87;;
78072;SDS011;67281;48.770;11.440;2023-03-03T01:28:31;38.40;;;23.90;;
78072;SDS011;67281;48.770;11.440;2023-03-03T01:31:00;37.07;;;24.17;;
78072;SDS011;67281;48.770;11.440;2023-03-03T01:33:30;36.67;;;25.47;;
78072;SDS011;67281;48.770;11.440;2023-03-03T01:35:58;37.23;;;24.33;;
78072;SDS011;67281;48.770;11.440;2023-03-03T01:38:25;40.67;;;26.13;;
78072;SDS011;67281;48.770;11.440;2023-03-03T01:40:53;34.67;;;24.90;;
78072;SDS011;67281;48.770;11.440;2023-03-03T01:43:22;38.00;;;25.83;;
78072;SDS011;67281;48.770;11.440;2023-03-03T01:48:21;37.63;;;25.93;;
78072;SDS011;67281;48.770;11.440;2023-03-03T01:50:51;38.80;;;26.47;;
78072;SDS011;67281;48.770;11.440;2023-03-03T01:53:32;38.53;;;25.10;;
78072;SDS011;67281;48.770;11.440;2023-03-03T01:56:05;38.40;;;26.40;;
78072;SDS011;67281;48.770;11.440;2023-03-03T01:58:35;40.40;;;25.90;;
78072;SDS011;67281;48.770;11.440;2023-03-03T02:01:07;39.80;;;25.57;;
78072;SDS011;67281;48.770;11.440;2023-03-03T02:03:39;38.20;;;25.60;;
78072;SDS011;67281;48.770;11.440;2023-03-03T02:06:07;34.57;;;25.53;;
78072;SDS011;67281;48.770;11.440;2023-03-03T02:08:53;37.93;;;26.47;;
78072;SDS011;67281;48.770;11.440;2023-03-03T02:11:25;39.80;;;25.83;;
78072;SDS011;67281;48.770;11.440;2023-03-03T02:13:54;34.83;;;25.13;;
78072;SDS011;67281;48.770;11.440;2023-03-03T02:16:21;42.60;;;25.27;;
78072;SDS011;67281;48.770;11.440;2023-03-03T02:18:48;34.83;;;24.70;;
78072;SDS011;67281;48.770;11.440;2023-03-03T02:21:17;37.93;;;26.17;;
78072;SDS011;67281;48.770;11.440;2023-03-03T02:26:23;36.87;;;24.57;;
78072;SDS011;67281;48.770;11.440;2023-03-03T02:28:52;37.77;;;26.30;;
78072;SDS011;67281;48.770;11.440;2023-03-03T02:31:20;41.33;;;27.40;;
78072;SDS011;67281;48.770;11.440;2023-03-03T02:33:50;37.53;;;25.13;;
78072;SDS011;67281;48.770;11.440;2023-03-03T02:36:29;36.17;;;25.63;;
78072;SDS011;67281;48.770;11.440;2023-03-03T02:41:57;39.17;;;26.37;;
78072;SDS011;67281;48.770;11.440;2023-03-03T02:44:38;40.73;;;26.47;;
78072;SDS011;67281;48.770;11.440;2023-03-03T02:47:05;38.93;;;26.20;;
78072;SDS011;67281;48.770;11.440;2023-03-03T02:49:33;36.50;;;24.97;;
78072;SDS011;67281;48.770;11.440;2023-03-03T02:52:02;42.83;;;26.03;;
78072;SDS011;67281;48.770;11.440;2023-03-03T02:54:32;36.60;;;24.87;;
78072;SDS011;67281;48.770;11.440;2023-03-03T02:56:59;35.60;;;24.30;;
78072;SDS011;67281;48.770;11.440;2023-03-03T02:59:27;39.27;;;25.37;;
78072;SDS011;67281;48.770;11.440;2023-03-03T03:01:54;38.50;;;25.80;;
78072;SDS011;67281;48.770;11.440;2023-03-03T03:04:22;37.87;;;25.97;;
78072;SDS011;67281;48.770;11.440;2023-03-03T03:06:51;38.43;;;26.73;;
78072;SDS011;67281;48.770;11.440;2023-03-03T03:09:20;39.90;;;26.30;;
78072;SDS011;67281;48.770;11.440;2023-03-03T03:11:48;35.37;;;24.67;;
78072;SDS011;67281;48.770;11.440;2023-03-03T03:14:15;39.30;;;26.17;;
78072;SDS011;67281;48.770;11.440;2023-03-03T03:16:43;39.47;;;26.37;;
78072;SDS011;67281;48.770;11.440;2023-03-03T03:19:10;40.77;;;27.07;;
78072;SDS011;67281;48.770;11.440;2023-03-03T03:21:37;38.47;;;25.53;;
78072;SDS011;67281;48.770;11.440;2023-03-03T03:24:04;42.10;;;27.00;;
78072;SDS011;67281;48.770;11.440;2023-03-03T03:26:32;41.13;;;26.80;;
78072;SDS011;67281;48.770;11.440;2023-03-03T03:28:59;39.63;;;25.73;;
78072;SDS011;67281;48.770;11.440;2023-03-03T03:31:26;41.87;;;26.73;;
78072;SDS011;67281;48.770;11.440;2023-03-03T03:33:53;36.87;;;25.50;;
78072;SDS011;67281;48.770;11.440;2023-03-03T03:36:21;39.13;;;25.93;;
78072;SDS011;67281;48.770;11.440;2023-03-03T03:38:48;40.00;;;25.47;;
78072;SDS011;67281;48.770;11.440;2023-03-03T03:41:15;35.93;;;24.57;;
78072;SDS011;67281;48.770;11.440;2023-03-03T03:43:42;38.53;;;26.17;;
78072;SDS011;67281;48.770;11.440;2023-03-03T03:46:09;38.60;;;26.43;;
78072;SDS011;67281;48.770;11.440;2023-03-03T03:48:37;38.40;;;25.53;;
78072;SDS011;67281;48.770;11.440;2023-03-03T03:51:04;36.17;;;25.20;;
78072;SDS011;67281;48.770;11.440;2023-03-03T03:53:31;36.40;;;26.17;;
78072;SDS011;67281;48.770;11.440;2023-03-03T03:55:58;36.77;;;25.80;;
78072;SDS011;67281;48.770;11.440;2023-03-03T03:58:25;39.10;;;25.53;;
78072;SDS011;67281;48.770;11.440;2023-03-03T04:00:52;40.40;;;27.20;;
78072;SDS011;67281;48.770;11.440;2023-03-03T04:03:20;39.33;;;26.17;;
78072;SDS011;67281;48.770;11.440;2023-03-03T04:05:47;39.97;;;26.57;;
78072;SDS011;67281;48.770;11.440;2023-03-03T04:08:14;39.63;;;26.60;;
78072;SDS011;67281;48.770;11.440;2023-03-03T04:10:41;39.40;;;25.73;;
78072;SDS011;67281;48.770;11.440;2023-03-03T04:13:08;39.23;;;26.27;;
78072;SDS011;67281;48.770;11.440;2023-03-03T04:15:35;39.87;;;27.13;;
78072;SDS011;67281;48.770;11.440;2023-03-03T04:18:02;38.77;;;27.77;;
78072;SDS011;67281;48.770;11.440;2023-03-03T04:20:29;41.70;;;26.60;;
78072;SDS011;67281;48.770;11.440;2023-03-03T04:22:56;37.63;;;25.70;;
78072;SDS011;67281;48.770;11.440;2023-03-03T04:25:23;44.37;;;28.30;;
78072;SDS011;67281;48.770;11.440;2023-03-03T04:27:50;39.47;;;26.43;;
78072;SDS011;67281;48.770;11.440;2023-03-03T04:30:18;40.47;;;26.47;;
78072;SDS011;67281;48.770;11.440;2023-03-03T04:32:45;38.93;;;26.30;;
78072;SDS011;67281;48.770;11.440;2023-03-03T04:35:12;39.70;;;26.40;;
78072;SDS011;67281;48.770;11.440;2023-03-03T04:37:39;42.87;;;27.43;;
78072;SDS011;67281;48.770;11.440;2023-03-03T04:40:07;37.87;;;26.70;;
78072;SDS011;67281;48.770;11.440;2023-03-03T04:42:34;40.17;;;26.63;;
78072;SDS011;67281;48.770;11.440;2023-03-03T04:45:02;39.43;;;26.13;;
78072;SDS011;67281;48.770;11.440;2023-03-03T04:47:30;39.43;;;26.33;;
78072;SDS011;67281;48.770;11.440;2023-03-03T04:49:58;40.23;;;27.50;;
78072;SDS011;67281;48.770;11.440;2023-03-03T04:52:25;40.93;;;26.43;;
78072;SDS011;67281;48.770;11.440;2023-03-03T04:54:51;41.27;;;27.97;;
78072;SDS011;67281;48.770;11.440;2023-03-03T04:57:18;41.40;;;27.53;;
78072;SDS011;67281;48.770;11.440;2023-03-03T04:59:45;42.97;;;27.57;;
78072;SDS011;67281;48.770;11.440;2023-03-03T05:02:12;38.37;;;26.10;;
78072;SDS011;67281;48.770;11.440;2023-03-03T05:04:39;43.87;;;27.13;;
78072;SDS011;67281;48.770;11.440;2023-03-03T05:07:06;40.87;;;27.37;;
78072;SDS011;67281;48.770;11.440;2023-03-03T05:09:32;41.87;;;27.30;;
78072;SDS011;67281;48.770;11.440;2023-03-03T05:11:59;40.20;;;26.53;;
78072;SDS011;67281;48.770;11.440;2023-03-03T05:14:26;39.87;;;27.07;;
78072;SDS011;67281;48.770;11.440;2023-03-03T05:16:53;39.27;;;26.87;;
78072;SDS011;67281;48.770;11.440;2023-03-03T05:19:20;39.53;;;26.50;;
78072;SDS011;67281;48.770;11.440;2023-03-03T05:21:47;37.87;;;25.50;;
78072;SDS011;67281;48.770;11.440;2023-03-03T05:24:14;38.97;;;26.23;;
78072;SDS011;67281;48.770;11.440;2023-03-03T05:26:41;44.50;;;27.90;;
78072;SDS011;67281;48.770;11.440;2023-03-03T05:29:08;37.10;;;26.37;;
78072;SDS011;67281;48.770;11.440;2023-03-03T05:31:35;37.93;;;26.97;;
78072;SDS011;67281;48.770;11.440;2023-03-03T05:34:02;37.07;;;26.23;;
78072;SDS011;67281;48.770;11.440;2023-03-03T05:36:29;36.00;;;25.07;;
78072;SDS011;67281;48.770;11.440;2023-03-03T05:38:56;38.37;;;26.27;;
78072;SDS011;67281;48.770;11.440;2023-03-03T05:41:23;37.77;;;26.90;;
78072;SDS011;67281;48.770;11.440;2023-03-03T05:43:50;37.80;;;26.87;;
78072;SDS011;67281;48.770;11.440;2023-03-03T05:46:17;40.07;;;26.63;;
78072;SDS011;67281;48.770;11.440;2023-03-03T05:48:45;39.67;;;25.93;;
78072;SDS011;67281;48.770;11.440;2023-03-03T05:51:12;37.17;;;25.40;;
78072;SDS011;67281;48.770;11.440;2023-03-03T05:53:39;39.63;;;26.60;;
78072;SDS011;67281;48.770;11.440;2023-03-03T05:56:06;41.37;;;26.83;;
78072;SDS011;67281;48.770;11.440;2023-03-03T05:58:33;42.90;;;27.10;;
78072;SDS011;67281;48.770;11.440;2023-03-03T06:01:00;38.40;;;26.10;;
78072;SDS011;67281;48.770;11.440;2023-03-03T06:03:27;40.60;;;26.10;;
78072;SDS011;67281;48.770;11.440;2023-03-03T06:05:53;37.43;;;25.73;;
78072;SDS011;67281;48.770;11.440;2023-03-03T06:08:20;38.10;;;25.67;;
78072;SDS011;67281;48.770;11.440;2023-03-03T06:10:47;42.53;;;27.27;;
78072;SDS011;67281;48.770;11.440;2023-03-03T06:13:14;37.13;;;26.70;;
78072;SDS011;67281;48.770;11.440;2023-03-03T06:15:40;42.87;;;27.13;;
78072;SDS011;67281;48.770;11.440;2023-03-03T06:18:07;39.53;;;26.40;;
78072;SDS011;67281;48.770;11.440;2023-03-03T06:20:34;40.97;;;27.00;;
78072;SDS011;67281;48.770;11.440;2023-03-03T06:23:01;42.20;;;26.87;;
78072;SDS011;67281;48.770;11.440;2023-03-03T06:25:28;36.27;;;25.17;;
78072;SDS011;67281;48.770;11.440;2023-03-03T06:27:56;33.20;;;23.63;;
78072;SDS011;67281;48.770;11.440;2023-03-03T06:30:23;35.93;;;23.53;;
78072;SDS011;67281;48.770;11.440;2023-03-03T06:32:52;40.70;;;25.33;;
78072;SDS011;67281;48.770;11.440;2023-03-03T06:35:19;37.67;;;25.57;;
78072;SDS011;67281;48.770;11.440;2023-03-03T06:37:46;42.00;;;25.97;;
78072;SDS011;67281;48.770;11.440;2023-03-03T06:40:16;40.00;;;26.83;;
78072;SDS011;67281;48.770;11.440;2023-03-03T06:42:43;41.53;;;26.73;;
78072;SDS011;67281;48.770;11.440;2023-03-03T06:45:10;41.50;;;27.83;;
78072;SDS011;67281;48.770;11.440;2023-03-03T06:47:37;41.40;;;27.73;;
78072;SDS011;67281;48.770;11.440;2023-03-03T06:50:04;39.87;;;26.20;;
78072;SDS011;67281;48.770;11.440;2023-03-03T06:52:31;42.37;;;26.17;;
78072;SDS011;67281;48.770;11.440;2023-03-03T06:54:58;41.70;;;26.37;;
78072;SDS011;67281;48.770;11.440;2023-03-03T06:57:28;42.57;;;26.33;;
78072;SDS011;67281;48.770;11.440;2023-03-03T06:59:58;40.97;;;26.23;;
78072;SDS011;67281;48.770;11.440;2023-03-03T07:02:35;36.33;;;25.23;;
78072;SDS011;67281;48.770;11.440;2023-03-03T07:05:05;40.57;;;25.90;;
78072;SDS011;67281;48.770;11.440;2023-03-03T07:07:36;46.43;;;28.20;;
78072;SDS011;67281;48.770;11.440;2023-03-03T07:10:05;38.03;;;25.50;;
78072;SDS011;67281;48.770;11.440;2023-03-03T07:12:38;36.63;;;25.07;;
78072;SDS011;67281;48.770;11.440;2023-03-03T07:15:12;38.93;;;26.10;;
78072;SDS011;67281;48.770;11.440;2023-03-03T07:17:43;35.50;;;24.67;;
78072;SDS011;67281;48.770;11.440;2023-03-03T07:20:23;39.07;;;24.97;;
78072;SDS011;67281;48.770;11.440;2023-03-03T07:22:53;42.00;;;26.13;;
78072;SDS011;67281;48.770;11.440;2023-03-03T07:25:30;37.40;;;24.43;;
78072;SDS011;67281;48.770;11.440;2023-03-03T07:27:59;36.90;;;25.37;;
78072;SDS011;67281;48.770;11.440;2023-03-03T07:30:53;41.00;;;24.23;;
78072;SDS011;67281;48.770;11.440;2023-03-03T07:33:26;41.80;;;27.57;;
78072;SDS011;67281;48.770;11.440;2023-03-03T07:44:53;33.43;;;24.70;;
78072;SDS011;67281;48.770;11.440;2023-03-03T07:47:23;38.60;;;25.03;;
78072;SDS011;67281;48.770;11.440;2023-03-03T07:49:55;43.47;;;26.73;;
78072;SDS011;67281;48.770;11.440;2023-03-03T07:52:30;46.33;;;28.23;;
78072;SDS011;67281;48.770;11.440;2023-03-03T07:55:26;39.37;;;26.37;;
78072;SDS011;67281;48.770;11.440;2023-03-03T07:58:05;42.07;;;25.27;;
78072;SDS011;67281;48.770;11.440;2023-03-03T08:03:54;37.93;;;23.37;;
78072;SDS011;67281;48.770;11.440;2023-03-03T08:06:55;35.03;;;22.90;;
78072;SDS011;67281;48.770;11.440;2023-03-03T08:09:35;34.57;;;24.03;;
78072;SDS011;67281;48.770;11.440;2023-03-03T08:14:36;35.50;;;20.63;;
78072;SDS011;67281;48.770;11.440;2023-03-03T08:17:13;26.50;;;18.03;;
78072;SDS011;67281;48.770;11.440;2023-03-03T08:19:54;26.57;;;18.50;;
78072;SDS011;67281;48.770;11.440;2023-03-03T08:22:28;30.77;;;17.17;;
78072;SDS011;67281;48.770;11.440;2023-03-03T08:24:58;29.07;;;19.33;;
78072;SDS011;67281;48.770;11.440;2023-03-03T08:27:25;25.37;;;18.10;;
78072;SDS011;67281;48.770;11.440;2023-03-03T08:29:52;27.87;;;17.87;;
78072;SDS011;67281;48.770;11.440;2023-03-03T08:32:19;27.83;;;19.03;;
78072;SDS011;67281;48.770;11.440;2023-03-03T08:34:45;36.67;;;19.20;;
78072;SDS011;67281;48.770;11.440;2023-03-03T08:37:12;29.07;;;17.97;;
78072;SDS011;67281;48.770;11.440;2023-03-03T08:39:39;32.67;;;19.27;;
78072;SDS011;67281;48.770;11.440;2023-03-03T08:42:06;31.93;;;19.57;;
78072;SDS011;67281;48.770;11.440;2023-03-03T08:44:33;25.33;;;18.43;;
78072;SDS011;67281;48.770;11.440;2023-03-03T08:47:00;34.97;;;19.40;;
78072;SDS011;67281;48.770;11.440;2023-03-03T08:49:27;29.43;;;18.80;;
78072;SDS011;67281;48.770;11.440;2023-03-03T08:51:54;26.30;;;18.83;;
78072;SDS011;67281;48.770;11.440;2023-03-03T08:54:21;28.67;;;19.03;;
78072;SDS011;67281;48.770;11.440;2023-03-03T08:56:47;29.97;;;18.53;;
78072;SDS011;67281;48.770;11.440;2023-03-03T08:59:14;25.87;;;18.73;;
78072;SDS011;67281;48.770;11.440;2023-03-03T09:01:41;30.47;;;20.33;;
78072;SDS011;67281;48.770;11.440;2023-03-03T09:04:10;29.43;;;19.37;;
78072;SDS011;67281;48.770;11.440;2023-03-03T09:06:37;26.17;;;19.77;;
78072;SDS011;67281;48.770;11.440;2023-03-03T09:09:04;27.53;;;19.00;;
78072;SDS011;67281;48.770;11.440;2023-03-03T09:11:31;28.73;;;19.90;;
78072;SDS011;67281;48.770;11.440;2023-03-03T09:14:05;27.93;;;19.43;;
78072;SDS011;67281;48.770;11.440;2023-03-03T09:16:38;29.43;;;20.77;;
78072;SDS011;67281;48.770;11.440;2023-03-03T09:21:52;27.00;;;19.50;;
78072;SDS011;67281;48.770;11.440;2023-03-03T09:24:24;28.30;;;18.17;;
78072;SDS011;67281;48.770;11.440;2023-03-03T09:26:56;31.63;;;19.93;;
78072;SDS011;67281;48.770;11.440;2023-03-03T09:29:25;25.57;;;19.10;;
78072;SDS011;67281;48.770;11.440;2023-03-03T09:31:58;26.50;;;19.37;;
78072;SDS011;67281;48.770;11.440;2023-03-03T09:37:17;25.37;;;19.23;;
78072;SDS011;67281;48.770;11.440;2023-03-03T09:39:45;29.23;;;20.00;;
78072;SDS011;67281;48.770;11.440;2023-03-03T10:02:59;22.43;;;17.03;;
78072;SDS011;67281;48.770;11.440;2023-03-03T10:05:40;26.43;;;17.10;;
78072;SDS011;67281;48.770;11.440;2023-03-03T10:11:13;25.53;;;18.93;;
78072;SDS011;67281;48.770;11.440;2023-03-03T10:14:23;24.87;;;18.07;;
78072;SDS011;67281;48.770;11.440;2023-03-03T10:17:19;27.97;;;19.60;;
78072;SDS011;67281;48.770;11.440;2023-03-03T10:22:51;26.03;;;19.27;;
78072;SDS011;67281;48.770;11.440;2023-03-03T10:25:41;24.47;;;17.83;;
78072;SDS011;67281;48.770;11.440;2023-03-03T10:31:01;26.77;;;18.90;;
78072;SDS011;67281;48.770;11.440;2023-03-03T10:45:12;24.60;;;17.33;;
78072;SDS011;67281;48.770;11.440;2023-03-03T10:48:09;24.70;;;17.23;;
78072;SDS011;67281;48.770;11.440;2023-03-03T11:02:21;31.67;;;19.13;;
78072;SDS011;67281;48.770;11.440;2023-03-03T11:07:51;24.63;;;17.90;;
78072;SDS011;67281;48.770;11.440;2023-03-03T11:16:12;26.17;;;18.40;;
78072;SDS011;67281;48.770;11.440;2023-03-03T11:24:25;24.77;;;18.30;;
78072;SDS011;67281;48.770;11.440;2023-03-03T11:26:56;24.77;;;18.60;;
78072;SDS011;67281;48.770;11.440;2023-03-03T11:46:08;26.70;;;21.40;;
78072;SDS011;67281;48.770;11.440;2023-03-03T11:48:45;31.40;;;20.93;;
78072;SDS011;67281;48.770;11.440;2023-03-03T11:54:21;28.43;;;20.87;;
78072;SDS011;67281;48.770;11.440;2023-03-03T12:00:02;30.83;;;20.57;;
78072;SDS011;67281;48.770;11.440;2023-03-03T12:02:41;28.07;;;21.10;;
78072;SDS011;67281;48.770;11.440;2023-03-03T12:05:26;27.70;;;22.07;;
78072;SDS011;67281;48.770;11.440;2023-03-03T12:11:24;25.63;;;18.77;;
78072;SDS011;67281;48.770;11.440;2023-03-03T12:19:24;21.77;;;17.83;;
78072;SDS011;67281;48.770;11.440;2023-03-03T12:27:51;26.53;;;18.70;;
78072;SDS011;67281;48.770;11.440;2023-03-03T12:30:36;25.77;;;19.13;;
78072;SDS011;67281;48.770;11.440;2023-03-03T12:39:16;25.50;;;18.37;;
78072;SDS011;67281;48.770;11.440;2023-03-03T12:47:50;24.73;;;17.87;;
78072;SDS011;67281;48.770;11.440;2023-03-03T12:50:30;25.87;;;19.50;;
78072;SDS011;67281;48.770;11.440;2023-03-03T12:56:04;26.30;;;20.13;;
78072;SDS011;67281;48.770;11.440;2023-03-03T13:04:37;28.67;;;18.30;;
78072;SDS011;67281;48.770;11.440;2023-03-03T13:12:36;27.77;;;20.33;;
78072;SDS011;67281;48.770;11.440;2023-03-03T13:15:38;33.60;;;20.13;;
78072;SDS011;67281;48.770;11.440;2023-03-03T13:18:37;26.70;;;19.83;;
78072;SDS011;67281;48.770;11.440;2023-03-03T13:24:00;27.40;;;19.73;;
78072;SDS011;67281;48.770;11.440;2023-03-03T13:29:24;28.73;;;19.90;;
78072;SDS011;67281;48.770;11.440;2023-03-03T13:32:30;23.90;;;19.30;;
78072;SDS011;67281;48.770;11.440;2023-03-03T13:35:01;28.73;;;19.00;;
78072;SDS011;67281;48.770;11.440;2023-03-03T13:37:35;27.30;;;18.43;;
78072;SDS011;67281;48.770;11.440;2023-03-03T13:45:47;25.03;;;19.13;;
78072;SDS011;67281;48.770;11.440;2023-03-03T13:51:14;27.60;;;19.47;;
78072;SDS011;67281;48.770;11.440;2023-03-03T13:56:43;26.27;;;18.47;;
78072;SDS011;67281;48.770;11.440;2023-03-03T14:05:43;26.37;;;18.83;;
78072;SDS011;67281;48.770;11.440;2023-03-03T14:10:40;25.80;;;18.30;;
78072;SDS011;67281;48.770;11.440;2023-03-03T14:13:17;24.10;;;18.37;;
78072;SDS011;67281;48.770;11.440;2023-03-03T14:19:14;23.67;;;16.83;;
78072;SDS011;67281;48.770;11.440;2023-03-03T14:21:28;23.93;;;17.50;;
78072;SDS011;67281;48.770;11.440;2023-03-03T14:24:19;22.97;;;17.33;;
78072;SDS011;67281;48.770;11.440;2023-03-03T14:27:36;22.17;;;17.53;;
78072;SDS011;67281;48.770;11.440;2023-03-03T14:35:38;23.70;;;17.53;;
78072;SDS011;67281;48.770;11.440;2023-03-03T14:41:19;22.53;;;17.63;;
78072;SDS011;67281;48.770;11.440;2023-03-03T14:43:55;23.77;;;16.80;;
78072;SDS011;67281;48.770;11.440;2023-03-03T14:46:43;28.93;;;16.70;;
78072;SDS011;67281;48.770;11.440;2023-03-03T14:49:32;24.63;;;16.60;;
78072;SDS011;67281;48.770;11.440;2023-03-03T14:54:50;22.73;;;16.47;;
78072;SDS011;67281;48.770;11.440;2023-03-03T15:02:41;22.17;;;15.70;;
78072;SDS011;67281;48.770;11.440;2023-03-03T15:05:28;23.07;;;15.23;;
78072;SDS011;67281;48.770;11.440;2023-03-03T15:10:33;23.80;;;16.70;;
78072;SDS011;67281;48.770;11.440;2023-03-03T15:13:46;20.63;;;15.50;;
78072;SDS011;67281;48.770;11.440;2023-03-03T15:18:27;21.10;;;15.27;;
78072;SDS011;67281;48.770;11.440;2023-03-03T15:21:01;21.90;;;15.57;;
78072;SDS011;67281;48.770;11.440;2023-03-03T15:26:08;21.40;;;16.27;;
78072;SDS011;67281;48.770;11.440;2023-03-03T15:28:38;21.97;;;16.87;;
78072;SDS011;67281;48.770;11.440;2023-03-03T15:33:46;21.07;;;15.80;;
78072;SDS011;67281;48.770;11.440;2023-03-03T15:42:10;21.13;;;15.20;;
78072;SDS011;67281;48.770;11.440;2023-03-03T15:47:49;21.73;;;15.90;;
78072;SDS011;67281;48.770;11.440;2023-03-03T16:04:33;26.57;;;19.37;;
78072;SDS011;67281;48.770;11.440;2023-03-03T16:10:28;26.90;;;19.30;;
78072;SDS011;67281;48.770;11.440;2023-03-03T16:13:20;24.77;;;18.70;;
78072;SDS011;67281;48.770;11.440;2023-03-03T16:18:56;26.43;;;19.03;;
78072;SDS011;67281;48.770;11.440;2023-03-03T16:21:45;28.50;;;20.53;;
78072;SDS011;67281;48.770;11.440;2023-03-03T16:27:35;25.83;;;19.53;;
78072;SDS011;67281;48.770;11.440;2023-03-03T16:35:58;31.87;;;21.20;;
78072;SDS011;67281;48.770;11.440;2023-03-03T16:41:03;27.73;;;19.50;;
78072;SDS011;67281;48.770;11.440;2023-03-03T16:46:21;28.93;;;21.00;;
78072;SDS011;67281;48.770;11.440;2023-03-03T17:00:13;26.93;;;20.63;;
78072;SDS011;67281;48.770;11.440;2023-03-03T17:02:56;30.47;;;21.10;;
78072;SDS011;67281;48.770;11.440;2023-03-03T17:05:51;33.93;;;20.70;;
78072;SDS011;67281;48.770;11.440;2023-03-03T17:16:59;30.97;;;20.93;;
78072;SDS011;67281;48.770;11.440;2023-03-03T17:25:43;30.57;;;20.43;;
78072;SDS011;67281;48.770;11.440;2023-03-03T17:42:14;34.43;;;22.57;;
78072;SDS011;67281;48.770;11.440;2023-03-03T17:53:30;32.57;;;22.30;;
78072;SDS011;67281;48.770;11.440;2023-03-03T17:56:23;31.50;;;21.47;;
78072;SDS011;67281;48.770;11.440;2023-03-03T18:20:48;34.07;;;21.57;;
78072;SDS011;67281;48.770;11.440;2023-03-03T18:23:41;36.17;;;22.50;;
78072;SDS011;67281;48.770;11.440;2023-03-03T18:26:28;30.97;;;21.13;;
78072;SDS011;67281;48.770;11.440;2023-03-03T18:29:22;32.73;;;20.87;;
78072;SDS011;67281;48.770;11.440;2023-03-03T18:34:25;24.47;;;17.63;;
78072;SDS011;67281;48.770;11.440;2023-03-03T18:36:59;26.57;;;19.10;;
78072;SDS011;67281;48.770;11.440;2023-03-03T18:39:38;29.30;;;17.80;;
78072;SDS011;67281;48.770;11.440;2023-03-03T18:44:42;22.57;;;16.97;;
78072;SDS011;67281;48.770;11.440;2023-03-03T18:47:10;22.20;;;16.37;;
78072;SDS011;67281;48.770;11.440;2023-03-03T18:52:31;20.07;;;14.10;;
78072;SDS011;67281;48.770;11.440;2023-03-03T18:55:01;20.37;;;14.77;;
78072;SDS011;67281;48.770;11.440;2023-03-03T18:57:29;23.23;;;16.03;;
78072;SDS011;67281;48.770;11.440;2023-03-03T18:59:57;24.83;;;16.80;;
78072;SDS011;67281;48.770;11.440;2023-03-03T19:02:54;26.20;;;17.13;;
78072;SDS011;67281;48.770;11.440;2023-03-03T19:05:45;22.77;;;16.53;;
78072;SDS011;67281;48.770;11.440;2023-03-03T19:08:28;23.93;;;16.57;;
78072;SDS011;67281;48.770;11.440;2023-03-03T19:11:29;22.57;;;16.57;;
78072;SDS011;67281;48.770;11.440;2023-03-03T19:14:14;24.00;;;16.77;;
78072;SDS011;67281;48.770;11.440;2023-03-03T19:20:11;21.70;;;13.60;;
78072;SDS011;67281;48.770;11.440;2023-03-03T19:22:45;21.77;;;13.27;;
78072;SDS011;67281;48.770;11.440;2023-03-03T19:25:23;19.53;;;14.10;;
78072;SDS011;67281;48.770;11.440;2023-03-03T19:27:57;19.07;;;14.10;;
78072;SDS011;67281;48.770;11.440;2023-03-03T19:33:52;22.50;;;13.73;;
78072;SDS011;67281;48.770;11.440;2023-03-03T19:36:44;20.97;;;16.13;;
78072;SDS011;67281;48.770;11.440;2023-03-03T19:39:25;18.17;;;12.73;;
78072;SDS011;67281;48.770;11.440;2023-03-03T19:41:57;21.73;;;13.13;;
78072;SDS011;67281;48.770;11.440;2023-03-03T19:49:49;16.67;;;12.53;;
78072;SDS011;67281;48.770;11.440;2023-03-03T19:52:37;21.37;;;14.27;;
78072;SDS011;67281;48.770;11.440;2023-03-03T19:55:15;20.33;;;14.60;;
78072;SDS011;67281;48.770;11.440;2023-03-03T20:03:28;20.00;;;14.57;;
78072;SDS011;67281;48.770;11.440;2023-03-03T20:14:47;20.03;;;14.97;;
78072;SDS011;67281;48.770;11.440;2023-03-03T20:22:29;21.30;;;13.27;;
78072;SDS011;67281;48.770;11.440;2023-03-03T20:25:06;21.77;;;13.63;;
78072;SDS011;67281;48.770;11.440;2023-03-03T20:27:49;18.17;;;12.87;;
78072;SDS011;67281;48.770;11.440;2023-03-03T20:36:08;15.73;;;12.83;;
78072;SDS011;67281;48.770;11.440;2023-03-03T20:41:36;26.63;;;18.63;;
78072;SDS011;67281;48.770;11.440;2023-03-03T20:49:32;22.77;;;15.10;;
78072;SDS011;67281;48.770;11.440;2023-03-03T21:01:07;26.13;;;17.60;;
78072;SDS011;67281;48.770;11.440;2023-03-03T21:03:38;24.43;;;16.23;;
78072;SDS011;67281;48.770;11.440;2023-03-03T21:06:17;20.03;;;15.60;;
78072;SDS011;67281;48.770;11.440;2023-03-03T21:08:49;22.13;;;15.40;;
78072;SDS011;67281;48.770;11.440;2023-03-03T21:13:56;25.87;;;17.30;;
78072;SDS011;67281;48.770;11.440;2023-03-03T21:19:00;20.70;;;15.50;;
78072;SDS011;67281;48.770;11.440;2023-03-03T21:21:51;19.07;;;15.00;;
78072;SDS011;67281;48.770;11.440;2023-03-03T21:24:21;18.60;;;14.50;;
78072;SDS011;67281;48.770;11.440;2023-03-03T21:31:58;22.60;;;16.00;;
78072;SDS011;67281;48.770;11.440;2023-03-03T21:37:07;23.70;;;15.80;;